Terminal Aerodrome Forecast
Issued by NWS

Home | Current Version | Previous Version | Text Only | Print | Product List | Glossary On
Versions: 1 2 3 4 5 6 7 8 9 10 11 12 13
000
FTUS42 KTAE 292100 AAA
TAFABY
TAF AMD
KABY 292137Z 2922/3018 16006KT P6SM SCT080 SCT090 BKN120
     FM300200 VRB04KT P6SM FEW040 BKN250
     FM301500 17006KT P6SM BKN050=

USA.gov is the U.S. government's official web portal to all federal, state and local government web resources and services.